Time;durP1;ratioP1;P1;durP2;ratioP2;P2;SDS_P1;SDS_P2;PMS_P1;PMS_P2;Temp;Humidity;BMP_temperature;BMP_pressure;BME280_temperature;BME280_humidity;BME280_pressure;Samples;Min_cycle;Max_cycle;Signal;HPM_P1;HPM_P2
2023/04/23 00:00:20;;;;;;;28.70;17.10;;;;;;;;;;111023;1247;22227;-80
2023/04/23 00:03:11;;;;;;;32.20;19.10;;;;;;;;;;108537;1253;22627;-79
2023/04/23 00:05:38;;;;;;;38.10;21.60;;;;;;;;;;107642;1250;24896;-79
2023/04/23 00:08:04;;;;;;;37.20;22.10;;;;;;;;;;107688;1250;22522;-79
2023/04/23 00:10:31;;;;;;;36.10;20.50;;;;;;;;;;109141;1249;22133;-80
2023/04/23 00:12:57;;;;;;;32.90;19.30;;;;;;;;;;110816;1251;22165;-80
2023/04/23 00:15:23;;;;;;;40.90;20.30;;;;;;;;;;110841;1249;23218;-80
2023/04/23 00:17:50;;;;;;;32.90;18.90;;;;;;;;;;110855;1253;22410;-80
2023/04/23 00:20:18;;;;;;;40.40;20.10;;;;;;;;;;107959;1255;25402;-79
2023/04/23 00:22:44;;;;;;;33.60;20.20;;;;;;;;;;107684;1253;25345;-79
2023/04/23 00:25:11;;;;;;;48.90;19.10;;;;;;;;;;107704;1251;25503;-79
2023/04/23 00:27:37;;;;;;;32.10;20.10;;;;;;;;;;107680;1253;24187;-79
2023/04/23 00:30:04;;;;;;;31.30;18.30;;;;;;;;;;108038;1248;25366;-79
2023/04/23 00:32:30;;;;;;;31.50;18.20;;;;;;;;;;108100;1248;24193;-79
2023/04/23 00:34:56;;;;;;;34.00;20.80;;;;;;;;;;108114;1251;22530;-79
2023/04/23 00:37:23;;;;;;;31.50;19.10;;;;;;;;;;108095;1248;22856;-79
2023/04/23 00:39:49;;;;;;;32.70;18.90;;;;;;;;;;108153;1248;25416;-79
2023/04/23 00:42:16;;;;;;;33.30;19.60;;;;;;;;;;108104;1248;22536;-79
2023/04/23 00:44:42;;;;;;;32.40;19.80;;;;;;;;;;108122;1250;23783;-79
2023/04/23 00:47:08;;;;;;;38.10;20.00;;;;;;;;;;108104;1251;22658;-79
2023/04/23 00:49:35;;;;;;;43.40;21.60;;;;;;;;;;108142;1248;24215;-79
2023/04/23 00:52:02;;;;;;;34.70;20.00;;;;;;;;;;108139;1248;22525;-79
2023/04/23 00:54:29;;;;;;;36.90;21.10;;;;;;;;;;108086;1248;25271;-79
2023/04/23 00:56:58;;;;;;;35.70;20.10;;;;;;;;;;108000;1253;25287;-79
2023/04/23 00:59:24;;;;;;;38.30;21.10;;;;;;;;;;107891;1248;22537;-79
2023/04/23 01:01:51;;;;;;;33.70;20.70;;;;;;;;;;107918;1248;24215;-79
2023/04/23 01:04:17;;;;;;;32.40;19.40;;;;;;;;;;107956;1247;22526;-79
2023/04/23 01:06:45;;;;;;;30.40;17.20;;;;;;;;;;107935;1247;22515;-79
2023/04/23 01:09:12;;;;;;;31.30;19.00;;;;;;;;;;107902;1248;26437;-79
2023/04/23 01:11:39;;;;;;;37.60;18.50;;;;;;;;;;107722;1254;22519;-79
2023/04/23 01:14:05;;;;;;;33.40;19.80;;;;;;;;;;107961;1247;24186;-79
2023/04/23 01:16:31;;;;;;;31.10;18.20;;;;;;;;;;107900;1253;22553;-79
2023/04/23 01:18:58;;;;;;;30.60;18.70;;;;;;;;;;107897;1248;22644;-79
2023/04/23 01:21:25;;;;;;;34.30;17.90;;;;;;;;;;107921;1247;23268;-79
2023/04/23 01:23:51;;;;;;;28.60;18.10;;;;;;;;;;107893;1248;22529;-79
2023/04/23 01:26:18;;;;;;;32.40;19.40;;;;;;;;;;107942;1252;22526;-79
2023/04/23 01:28:45;;;;;;;33.70;19.50;;;;;;;;;;107954;1248;22530;-79
2023/04/23 01:31:14;;;;;;;34.50;18.50;;;;;;;;;;109938;1248;22291;-79
2023/04/23 01:33:41;;;;;;;34.60;20.20;;;;;;;;;;111045;1248;22216;-80
2023/04/23 01:36:07;;;;;;;34.50;18.60;;;;;;;;;;111024;1247;22249;-79
2023/04/23 01:38:34;;;;;;;32.70;19.20;;;;;;;;;;111164;1247;22840;-80
2023/04/23 01:41:00;;;;;;;30.60;18.90;;;;;;;;;;110861;1251;22328;-79
2023/04/23 01:43:27;;;;;;;30.20;18.50;;;;;;;;;;111110;1248;22517;-80
2023/04/23 01:45:53;;;;;;;29.10;18.40;;;;;;;;;;111146;1248;22111;-79
2023/04/23 01:48:20;;;;;;;39.40;20.10;;;;;;;;;;110897;1247;22279;-79
2023/04/23 01:50:47;;;;;;;35.90;19.10;;;;;;;;;;111156;1247;22467;-79
2023/04/23 01:53:13;;;;;;;31.90;17.70;;;;;;;;;;110892;1248;22184;-80
2023/04/23 01:55:39;;;;;;;36.30;18.90;;;;;;;;;;108748;1251;25294;-79
2023/04/23 01:58:06;;;;;;;31.90;18.20;;;;;;;;;;107914;1252;25380;-79
2023/04/23 02:00:32;;;;;;;33.40;17.60;;;;;;;;;;107596;1248;149009;-79
2023/04/23 02:02:58;;;;;;;30.60;17.10;;;;;;;;;;107898;1248;22525;-79
2023/04/23 02:05:24;;;;;;;29.50;16.90;;;;;;;;;;107883;1253;22922;-79
2023/04/23 02:07:51;;;;;;;31.60;18.70;;;;;;;;;;107709;1248;22536;-79
2023/04/23 02:10:17;;;;;;;34.70;19.30;;;;;;;;;;107919;1252;22525;-79
2023/04/23 02:12:44;;;;;;;31.50;18.00;;;;;;;;;;107888;1253;26357;-79
2023/04/23 02:15:10;;;;;;;33.50;17.80;;;;;;;;;;107854;1252;22969;-78
2023/04/23 02:17:38;;;;;;;29.80;17.30;;;;;;;;;;107927;1253;22729;-80
2023/04/23 02:20:06;;;;;;;33.10;19.50;;;;;;;;;;108545;1247;22579;-78
2023/04/23 02:22:33;;;;;;;31.40;18.60;;;;;;;;;;107936;1247;22643;-78
2023/04/23 02:25:00;;;;;;;32.60;17.70;;;;;;;;;;107977;1247;22527;-78
2023/04/23 02:27:26;;;;;;;35.90;18.30;;;;;;;;;;107895;1248;26607;-78
2023/04/23 02:29:53;;;;;;;36.80;20.10;;;;;;;;;;108076;1248;23003;-78
2023/04/23 02:32:19;;;;;;;31.60;18.30;;;;;;;;;;108081;1248;22515;-77
2023/04/23 02:34:46;;;;;;;28.50;16.80;;;;;;;;;;108116;1248;24336;-78
2023/04/23 02:37:12;;;;;;;27.60;16.00;;;;;;;;;;108118;1248;22521;-78
2023/04/23 02:39:38;;;;;;;27.80;17.10;;;;;;;;;;108094;1248;24196;-77
2023/04/23 02:42:05;;;;;;;32.10;17.20;;;;;;;;;;108077;1251;22533;-78
2023/04/23 02:44:32;;;;;;;28.30;16.40;;;;;;;;;;108169;1248;25348;-78
2023/04/23 02:46:58;;;;;;;29.40;16.30;;;;;;;;;;107659;1254;22520;-78
2023/04/23 02:49:25;;;;;;;28.80;17.00;;;;;;;;;;108141;1251;25366;-79
2023/04/23 02:51:51;;;;;;;22.80;15.00;;;;;;;;;;108035;1248;22524;-79
2023/04/23 02:54:17;;;;;;;27.50;16.30;;;;;;;;;;108131;1248;25327;-79
2023/04/23 02:56:44;;;;;;;29.50;18.30;;;;;;;;;;108045;1247;23378;-79
2023/04/23 02:59:11;;;;;;;28.20;15.90;;;;;;;;;;107748;1247;25331;-79
2023/04/23 03:01:37;;;;;;;27.30;17.60;;;;;;;;;;107926;1253;25211;-79
2023/04/23 03:04:03;;;;;;;25.20;16.50;;;;;;;;;;107863;1248;24192;-79
2023/04/23 03:06:30;;;;;;;30.30;17.40;;;;;;;;;;107903;1248;22639;-78
2023/04/23 03:08:57;;;;;;;33.90;17.30;;;;;;;;;;107859;1252;22534;-78
2023/04/23 03:11:23;;;;;;;29.80;17.10;;;;;;;;;;107941;1247;24237;-79
2023/04/23 03:13:49;;;;;;;27.00;17.10;;;;;;;;;;107888;1247;22525;-78
2023/04/23 03:16:16;;;;;;;32.70;18.30;;;;;;;;;;107925;1248;22522;-79
2023/04/23 03:18:42;;;;;;;27.70;16.40;;;;;;;;;;107914;1248;24241;-79
2023/04/23 03:21:08;;;;;;;28.00;16.50;;;;;;;;;;107930;1247;25413;-81
2023/04/23 03:23:35;;;;;;;26.30;15.20;;;;;;;;;;108046;1247;24085;-79
2023/04/23 03:26:01;;;;;;;28.30;16.30;;;;;;;;;;110794;1247;22343;-79
2023/04/23 03:28:27;;;;;;;24.20;16.30;;;;;;;;;;110575;1247;22609;-80
2023/04/23 03:30:54;;;;;;;30.70;15.50;;;;;;;;;;108162;1248;22515;-79
2023/04/23 03:33:20;;;;;;;25.50;15.20;;;;;;;;;;108133;1248;23808;-79
2023/04/23 03:35:47;;;;;;;22.80;14.30;;;;;;;;;;108083;1251;22524;-80
2023/04/23 03:38:13;;;;;;;28.60;16.00;;;;;;;;;;108048;1248;24321;-79
2023/04/23 03:40:39;;;;;;;25.20;16.20;;;;;;;;;;108181;1251;22541;-79
2023/04/23 03:43:06;;;;;;;23.90;15.60;;;;;;;;;;108071;1250;25911;-80
2023/04/23 03:45:32;;;;;;;28.80;16.60;;;;;;;;;;108083;1248;23014;-79
2023/04/23 03:47:58;;;;;;;28.50;15.90;;;;;;;;;;108077;1248;24202;-79
2023/04/23 03:50:25;;;;;;;30.50;17.50;;;;;;;;;;108118;1248;24205;-80
2023/04/23 03:52:51;;;;;;;29.40;16.00;;;;;;;;;;107748;1248;25531;-80
2023/04/23 03:55:19;;;;;;;29.40;18.20;;;;;;;;;;108098;1248;24370;-80
2023/04/23 03:57:46;;;;;;;30.50;17.70;;;;;;;;;;107901;1247;25217;-79
2023/04/23 04:00:12;;;;;;;29.00;16.70;;;;;;;;;;107857;1247;22661;-80
2023/04/23 04:02:39;;;;;;;33.90;18.30;;;;;;;;;;107870;1247;24179;-79
2023/04/23 04:05:06;;;;;;;23.60;15.50;;;;;;;;;;107869;1247;22809;-79
2023/04/23 04:07:33;;;;;;;29.10;16.40;;;;;;;;;;107939;1247;22522;-79
2023/04/23 04:10:01;;;;;;;30.40;16.70;;;;;;;;;;107885;1247;25460;-79
2023/04/23 04:12:28;;;;;;;28.40;18.50;;;;;;;;;;107940;1248;23294;-80
2023/04/23 04:14:55;;;;;;;31.00;20.40;;;;;;;;;;107882;1248;24361;-79
2023/04/23 04:17:21;;;;;;;33.60;19.40;;;;;;;;;;107882;1247;25226;-80
2023/04/23 04:19:47;;;;;;;29.50;19.90;;;;;;;;;;107860;1247;22538;-79
2023/04/23 04:22:14;;;;;;;32.20;19.20;;;;;;;;;;107858;1247;23270;-80
2023/04/23 04:24:41;;;;;;;32.40;19.10;;;;;;;;;;108521;1248;25351;-80
2023/04/23 04:27:08;;;;;;;34.70;18.90;;;;;;;;;;108475;1247;22518;-80
2023/04/23 04:29:34;;;;;;;29.70;19.20;;;;;;;;;;108610;1248;22556;-79
2023/04/23 04:32:01;;;;;;;30.90;19.70;;;;;;;;;;108689;1247;23763;-79
2023/04/23 04:34:27;;;;;;;35.60;18.30;;;;;;;;;;108725;1247;22531;-79
2023/04/23 04:36:54;;;;;;;33.40;19.10;;;;;;;;;;108065;1248;22645;-79
2023/04/23 04:39:21;;;;;;;35.80;19.60;;;;;;;;;;107737;1248;26326;-79
2023/04/23 04:41:47;;;;;;;46.50;29.00;;;;;;;;;;108297;1252;22527;-79
2023/04/23 04:44:15;;;;;;;43.80;31.30;;;;;;;;;;108088;1248;23147;-79
2023/04/23 04:46:41;;;;;;;40.60;26.60;;;;;;;;;;108115;1247;24519;-79
2023/04/23 04:49:08;;;;;;;35.40;24.00;;;;;;;;;;108124;1248;25346;-79
2023/04/23 04:51:38;;;;;;;43.10;28.00;;;;;;;;;;108109;1248;24307;-79
2023/04/23 04:54:06;;;;;;;43.70;27.50;;;;;;;;;;108045;1247;22519;-80
2023/04/23 04:56:33;;;;;;;40.10;25.40;;;;;;;;;;108067;1247;24283;-80
2023/04/23 04:59:00;;;;;;;44.20;25.40;;;;;;;;;;107864;1247;25319;-79
2023/04/23 05:01:29;;;;;;;40.20;24.80;;;;;;;;;;107879;1248;22613;-79
2023/04/23 05:03:56;;;;;;;34.60;19.30;;;;;;;;;;107883;1247;25217;-79
2023/04/23 05:06:22;;;;;;;28.40;18.10;;;;;;;;;;107719;1251;25491;-79
2023/04/23 05:08:49;;;;;;;28.60;19.50;;;;;;;;;;107717;1254;22550;-81
2023/04/23 05:11:16;;;;;;;36.40;18.80;;;;;;;;;;107940;1248;22560;-80
2023/04/23 05:13:45;;;;;;;35.50;22.30;;;;;;;;;;108494;1248;22536;-81
2023/04/23 05:16:12;;;;;;;35.30;22.60;;;;;;;;;;108514;1253;24302;-79
2023/04/23 05:18:38;;;;;;;29.80;20.30;;;;;;;;;;108534;1247;24249;-80
2023/04/23 05:21:05;;;;;;;26.80;16.10;;;;;;;;;;108494;1248;22532;-79
2023/04/23 05:23:32;;;;;;;31.50;18.80;;;;;;;;;;107696;1248;23766;-81
2023/04/23 05:25:58;;;;;;;33.60;20.30;;;;;;;;;;108250;1248;24371;-78
2023/04/23 05:28:24;;;;;;;31.80;21.00;;;;;;;;;;107903;1247;22521;-78
2023/04/23 05:30:51;;;;;;;29.10;16.40;;;;;;;;;;108077;1251;22519;-78
2023/04/23 05:33:17;;;;;;;37.90;22.90;;;;;;;;;;108015;1251;22544;-78
2023/04/23 05:35:44;;;;;;;39.70;24.60;;;;;;;;;;108264;1251;22576;-78
2023/04/23 05:38:10;;;;;;;36.80;25.90;;;;;;;;;;108757;1247;22558;-78
2023/04/23 05:40:37;;;;;;;38.20;24.20;;;;;;;;;;108026;1247;22629;-78
2023/04/23 05:43:03;;;;;;;30.90;21.00;;;;;;;;;;108031;1251;22603;-78
2023/04/23 05:45:30;;;;;;;26.50;18.20;;;;;;;;;;108045;1248;24337;-78
2023/04/23 05:47:56;;;;;;;25.40;16.60;;;;;;;;;;107990;1250;23112;-78
2023/04/23 05:50:22;;;;;;;25.00;17.20;;;;;;;;;;108090;1247;23898;-78
2023/04/23 05:52:48;;;;;;;26.00;16.10;;;;;;;;;;108110;1251;22523;-81
2023/04/23 05:55:15;;;;;;;23.90;14.20;;;;;;;;;;108124;1247;22526;-80
2023/04/23 05:57:41;;;;;;;23.20;16.30;;;;;;;;;;107944;1247;24247;-78
2023/04/23 06:00:08;;;;;;;21.30;14.30;;;;;;;;;;107905;1251;22694;-79
2023/04/23 06:02:35;;;;;;;20.80;14.20;;;;;;;;;;107666;1253;25394;-79
2023/04/23 06:05:01;;;;;;;20.80;13.90;;;;;;;;;;107852;1253;26066;-79
2023/04/23 06:07:27;;;;;;;29.10;15.90;;;;;;;;;;107907;1247;23900;-79
2023/04/23 06:09:54;;;;;;;25.30;14.40;;;;;;;;;;107889;1248;24187;-79
2023/04/23 06:12:20;;;;;;;22.40;13.70;;;;;;;;;;107879;1247;22536;-79
2023/04/23 06:14:47;;;;;;;20.60;13.00;;;;;;;;;;107882;1248;25217;-79
2023/04/23 06:17:13;;;;;;;25.10;13.80;;;;;;;;;;107985;1247;22869;-79
2023/04/23 06:19:40;;;;;;;26.10;14.20;;;;;;;;;;107870;1247;22552;-79
2023/04/23 06:22:06;;;;;;;36.60;14.10;;;;;;;;;;108151;1247;22350;-79
2023/04/23 06:24:33;;;;;;;20.60;13.30;;;;;;;;;;108091;1248;22523;-79
2023/04/23 06:27:00;;;;;;;31.30;18.70;;;;;;;;;;107845;1247;25371;-79
2023/04/23 06:29:27;;;;;;;26.30;14.00;;;;;;;;;;107881;1253;22535;-79
2023/04/23 06:31:54;;;;;;;21.10;13.90;;;;;;;;;;107861;1247;25226;-79
2023/04/23 06:34:20;;;;;;;20.90;13.60;;;;;;;;;;107949;1247;23006;-79
2023/04/23 06:36:46;;;;;;;17.70;12.50;;;;;;;;;;107843;1247;22551;-79
2023/04/23 06:39:13;;;;;;;19.00;12.40;;;;;;;;;;107820;1247;22630;-79
2023/04/23 06:41:39;;;;;;;20.00;13.40;;;;;;;;;;107854;1247;24208;-78
2023/04/23 06:44:05;;;;;;;20.20;13.80;;;;;;;;;;107904;1248;22551;-78
2023/04/23 06:46:32;;;;;;;31.20;18.30;;;;;;;;;;107851;1247;24526;-79
2023/04/23 06:49:00;;;;;;;21.20;13.60;;;;;;;;;;107855;1247;22455;-79
2023/04/23 06:51:26;;;;;;;17.50;12.60;;;;;;;;;;107842;1247;22525;-78
2023/04/23 06:53:53;;;;;;;18.10;13.20;;;;;;;;;;107885;1247;22558;-79
2023/04/23 06:56:20;;;;;;;19.00;12.70;;;;;;;;;;107879;1247;22534;-79
2023/04/23 06:58:46;;;;;;;19.20;12.00;;;;;;;;;;107874;1247;25503;-78
2023/04/23 07:01:13;;;;;;;18.80;12.70;;;;;;;;;;107849;1247;24208;-79
2023/04/23 07:03:43;;;;;;;22.90;13.20;;;;;;;;;;107870;1248;22592;-79
2023/04/23 07:06:09;;;;;;;19.00;14.20;;;;;;;;;;107831;1247;22619;-79
2023/04/23 07:08:38;;;;;;;19.50;12.30;;;;;;;;;;107809;1248;22599;-79
2023/04/23 07:11:04;;;;;;;19.00;14.20;;;;;;;;;;107832;1247;25435;-79
2023/04/23 07:13:31;;;;;;;15.30;11.00;;;;;;;;;;107795;1252;25204;-79
2023/04/23 07:15:57;;;;;;;20.70;11.30;;;;;;;;;;107869;1248;22534;-79
2023/04/23 07:18:24;;;;;;;19.50;11.10;;;;;;;;;;107881;1248;25337;-79
2023/04/23 07:20:50;;;;;;;14.20;10.70;;;;;;;;;;107953;1247;23615;-79
2023/04/23 07:23:16;;;;;;;10.60;9.10;;;;;;;;;;107882;1247;24186;-80
2023/04/23 07:25:43;;;;;;;12.40;10.60;;;;;;;;;;107875;1250;22533;-80
2023/04/23 07:28:09;;;;;;;15.20;10.10;;;;;;;;;;107853;1247;25490;-80
2023/04/23 07:30:35;;;;;;;18.40;10.30;;;;;;;;;;107876;1248;27637;-80
2023/04/23 07:33:02;;;;;;;10.90;8.40;;;;;;;;;;107872;1247;22518;-79
2023/04/23 07:35:28;;;;;;;14.10;8.00;;;;;;;;;;107916;1247;25056;-80
2023/04/23 07:37:56;;;;;;;10.10;7.90;;;;;;;;;;107937;1248;22545;-80
2023/04/23 07:40:23;;;;;;;7.70;6.20;;;;;;;;;;107872;1248;22520;-80
2023/04/23 07:42:49;;;;;;;9.80;6.70;;;;;;;;;;107892;1247;23232;-80
2023/04/23 07:45:16;;;;;;;12.30;7.10;;;;;;;;;;107875;1247;23093;-80
2023/04/23 07:47:43;;;;;;;10.80;8.50;;;;;;;;;;108457;1252;23000;-80
2023/04/23 07:50:09;;;;;;;9.60;6.20;;;;;;;;;;108462;1247;25323;-80
2023/04/23 07:52:35;;;;;;;16.30;6.00;;;;;;;;;;108386;1247;22740;-80
2023/04/23 07:55:02;;;;;;;9.60;5.00;;;;;;;;;;108414;1252;25342;-80
2023/04/23 07:57:28;;;;;;;8.50;5.10;;;;;;;;;;108447;1252;22640;-80
2023/04/23 07:59:55;;;;;;;9.70;6.30;;;;;;;;;;108464;1247;25440;-80
2023/04/23 08:02:24;;;;;;;10.50;5.10;;;;;;;;;;108432;1247;22639;-81
2023/04/23 08:04:51;;;;;;;8.30;5.30;;;;;;;;;;108453;1248;22559;-81
2023/04/23 08:07:18;;;;;;;9.70;4.60;;;;;;;;;;108238;1248;22585;-80
2023/04/23 08:09:44;;;;;;;7.10;4.50;;;;;;;;;;108462;1248;22690;-81
2023/04/23 08:12:10;;;;;;;5.50;3.70;;;;;;;;;;108456;1248;22528;-80
2023/04/23 08:14:37;;;;;;;5.40;3.10;;;;;;;;;;108295;1248;22471;-80
2023/04/23 08:17:03;;;;;;;5.90;3.10;;;;;;;;;;108525;1247;25284;-80
2023/04/23 08:19:32;;;;;;;14.90;4.00;;;;;;;;;;108547;1247;22581;-81
2023/04/23 08:21:59;;;;;;;8.60;4.00;;;;;;;;;;108442;1247;22624;-81
2023/04/23 08:24:26;;;;;;;6.60;3.00;;;;;;;;;;108471;1247;22576;-81
2023/04/23 08:26:52;;;;;;;8.70;3.80;;;;;;;;;;108491;1247;22565;-80
2023/04/23 08:29:18;;;;;;;6.00;3.20;;;;;;;;;;108552;1247;22566;-81
2023/04/23 08:31:45;;;;;;;6.90;3.10;;;;;;;;;;108555;1247;59256;-81
2023/04/23 08:34:11;;;;;;;7.00;3.80;;;;;;;;;;108592;1247;22711;-80
2023/04/23 08:36:37;;;;;;;4.10;3.00;;;;;;;;;;108614;1248;22527;-80
2023/04/23 08:39:04;;;;;;;6.50;3.40;;;;;;;;;;108628;1248;22595;-81
2023/04/23 08:41:37;;;;;;;6.30;3.20;;;;;;;;;;108597;1248;25307;-81
2023/04/23 08:44:04;;;;;;;6.00;3.00;;;;;;;;;;108583;1251;22643;-81
2023/04/23 08:46:31;;;;;;;6.60;4.10;;;;;;;;;;108563;1248;22630;-80
2023/04/23 08:48:58;;;;;;;6.60;3.30;;;;;;;;;;108555;1248;22532;-81
2023/04/23 08:51:24;;;;;;;6.20;2.70;;;;;;;;;;108629;1248;22650;-80
2023/04/23 08:53:51;;;;;;;7.20;3.30;;;;;;;;;;108511;1247;22528;-81
2023/04/23 08:56:18;;;;;;;7.10;3.30;;;;;;;;;;108274;1247;24388;-80
2023/04/23 08:58:44;;;;;;;4.50;3.10;;;;;;;;;;108386;1247;22676;-80
2023/04/23 09:01:11;;;;;;;5.30;3.50;;;;;;;;;;108415;1247;24183;-81
2023/04/23 09:03:37;;;;;;;7.70;4.10;;;;;;;;;;108454;1247;25380;-81
2023/04/23 09:06:04;;;;;;;5.40;3.00;;;;;;;;;;108454;1248;22587;-81
2023/04/23 09:08:31;;;;;;;4.90;3.10;;;;;;;;;;108328;1247;36809;-81
2023/04/23 09:10:58;;;;;;;8.80;4.40;;;;;;;;;;107575;1251;62120;-80
2023/04/23 09:13:24;;;;;;;5.00;3.20;;;;;;;;;;107520;1247;62069;-81
2023/04/23 09:15:51;;;;;;;5.10;3.50;;;;;;;;;;107596;1252;61904;-80
2023/04/23 09:18:17;;;;;;;6.20;4.10;;;;;;;;;;107551;1247;62444;-80
2023/04/23 09:20:44;;;;;;;7.00;3.80;;;;;;;;;;107362;1248;61903;-81
2023/04/23 09:23:12;;;;;;;6.90;2.90;;;;;;;;;;107541;1252;61948;-81
2023/04/23 09:25:39;;;;;;;3.80;3.20;;;;;;;;;;107577;1247;62030;-81
2023/04/23 09:28:06;;;;;;;8.00;3.30;;;;;;;;;;107543;1248;62072;-81
2023/04/23 09:30:37;;;;;;;3.80;2.50;;;;;;;;;;107633;1247;62025;-81
2023/04/23 09:33:03;;;;;;;4.20;2.90;;;;;;;;;;107673;1247;61887;-80
2023/04/23 09:35:30;;;;;;;4.80;2.80;;;;;;;;;;107625;1250;62033;-80
2023/04/23 09:37:56;;;;;;;5.70;3.20;;;;;;;;;;107351;1250;62076;-80
2023/04/23 09:40:23;;;;;;;6.60;3.40;;;;;;;;;;107615;1247;62130;-81
2023/04/23 09:42:52;;;;;;;6.40;3.10;;;;;;;;;;107513;1247;62072;-81
2023/04/23 09:45:19;;;;;;;4.40;2.60;;;;;;;;;;107590;1247;62226;-81
2023/04/23 09:47:52;;;;;;;7.60;3.80;;;;;;;;;;107532;1247;61895;-81
2023/04/23 09:50:19;;;;;;;4.30;3.00;;;;;;;;;;107733;1248;63114;-81
2023/04/23 09:52:52;;;;;;;4.60;3.00;;;;;;;;;;107565;1247;62015;-81
2023/04/23 09:55:26;;;;;;;5.20;2.60;;;;;;;;;;107407;1247;62056;-80
2023/04/23 09:57:53;;;;;;;8.00;2.60;;;;;;;;;;107564;1248;62033;-81
2023/04/23 10:00:21;;;;;;;7.80;2.70;;;;;;;;;;107508;1247;62033;-81
2023/04/23 10:02:48;;;;;;;4.60;3.30;;;;;;;;;;108400;1252;61890;-81
2023/04/23 10:05:18;;;;;;;7.60;3.30;;;;;;;;;;107575;1247;62001;-81
2023/04/23 10:07:45;;;;;;;9.60;3.30;;;;;;;;;;107626;1248;62149;-81
2023/04/23 10:10:11;;;;;;;13.70;9.40;;;;;;;;;;107348;1247;62150;-81
2023/04/23 10:12:38;;;;;;;5.90;3.10;;;;;;;;;;107594;1250;62123;-81
2023/04/23 10:15:04;;;;;;;5.70;3.30;;;;;;;;;;107374;1251;62129;-81
2023/04/23 10:17:31;;;;;;;7.30;2.90;;;;;;;;;;107570;1247;62177;-81
2023/04/23 10:19:58;;;;;;;7.30;3.80;;;;;;;;;;107380;1248;62053;-81
2023/04/23 10:22:24;;;;;;;9.20;3.50;;;;;;;;;;107657;1247;62479;-80
2023/04/23 10:24:51;;;;;;;5.50;3.30;;;;;;;;;;107544;1247;62062;-80
2023/04/23 10:27:18;;;;;;;5.40;3.00;;;;;;;;;;107627;1252;62018;-80
2023/04/23 10:29:44;;;;;;;6.30;3.60;;;;;;;;;;107465;1250;62101;-80
2023/04/23 10:32:11;;;;;;;9.40;4.00;;;;;;;;;;107462;1253;61947;-80
2023/04/23 10:34:37;;;;;;;11.50;3.60;;;;;;;;;;107643;1247;62019;-80
2023/04/23 10:37:04;;;;;;;5.30;4.00;;;;;;;;;;107626;1247;61934;-80
2023/04/23 10:39:31;;;;;;;8.40;4.60;;;;;;;;;;107469;1247;62029;-80
2023/04/23 10:41:57;;;;;;;12.00;4.40;;;;;;;;;;107583;1252;61941;-80
2023/04/23 10:44:30;;;;;;;5.90;4.90;;;;;;;;;;107576;1248;61964;-82
2023/04/23 10:46:56;;;;;;;13.00;6.20;;;;;;;;;;107676;1247;61522;-81
2023/04/23 10:49:23;;;;;;;8.00;3.90;;;;;;;;;;107672;1247;61916;-80
2023/04/23 10:52:00;;;;;;;8.90;3.70;;;;;;;;;;107633;1247;62494;-80
2023/04/23 10:54:27;;;;;;;15.30;4.50;;;;;;;;;;107612;1247;61913;-80
2023/04/23 10:56:57;;;;;;;5.10;3.60;;;;;;;;;;107661;1247;62050;-81
2023/04/23 10:59:23;;;;;;;6.80;3.20;;;;;;;;;;107609;1247;62050;-81
2023/04/23 11:01:50;;;;;;;7.00;3.80;;;;;;;;;;108852;1247;61558;-81
2023/04/23 11:04:20;;;;;;;5.20;3.90;;;;;;;;;;107663;1247;62021;-81
2023/04/23 11:06:47;;;;;;;6.00;3.60;;;;;;;;;;107405;1247;62009;-81
2023/04/23 11:09:29;;;;;;;8.10;3.80;;;;;;;;;;107508;1247;62100;-80
2023/04/23 11:11:58;;;;;;;4.40;3.50;;;;;;;;;;107679;1248;62031;-80
2023/04/23 11:14:40;;;;;;;7.40;3.70;;;;;;;;;;107564;1247;61951;-81
2023/04/23 11:17:06;;;;;;;13.00;3.40;;;;;;;;;;107661;1247;61905;-80
2023/04/23 11:19:36;;;;;;;6.40;2.90;;;;;;;;;;107440;1247;62156;-80
2023/04/23 11:22:07;;;;;;;4.10;3.60;;;;;;;;;;107620;1252;62069;-80
2023/04/23 11:24:41;;;;;;;9.90;3.40;;;;;;;;;;107749;1247;62082;-80
2023/04/23 11:27:08;;;;;;;6.90;3.20;;;;;;;;;;107455;1248;62015;-81
2023/04/23 11:29:35;;;;;;;6.70;3.50;;;;;;;;;;107693;1247;62055;-81
2023/04/23 11:32:01;;;;;;;5.90;3.00;;;;;;;;;;107786;1248;61961;-81
2023/04/23 11:34:27;;;;;;;7.00;4.10;;;;;;;;;;107726;1251;62069;-80
2023/04/23 11:36:54;;;;;;;5.20;3.50;;;;;;;;;;107761;1247;62152;-80
2023/04/23 11:39:22;;;;;;;5.00;4.00;;;;;;;;;;107470;1251;61989;-80
2023/04/23 11:41:49;;;;;;;;;;;;;;;;;;107782;1251;61997;-81
2023/04/23 11:44:15;;;;;;;6.90;4.50;;;;;;;;;;107795;1248;61899;-81
2023/04/23 11:46:42;;;;;;;5.70;3.10;;;;;;;;;;107774;1248;62020;-81
2023/04/23 11:49:08;;;;;;;6.40;4.20;;;;;;;;;;107822;1247;62082;-81
2023/04/23 11:51:35;;;;;;;9.30;3.40;;;;;;;;;;107779;1251;62488;-80
2023/04/23 11:54:03;;;;;;;9.60;3.70;;;;;;;;;;107541;1247;62133;-81
2023/04/23 11:56:34;;;;;;;5.20;3.00;;;;;;;;;;107714;1248;61996;-80
2023/04/23 11:59:02;;;;;;;3.90;2.90;;;;;;;;;;107608;1247;62132;-80
2023/04/23 12:01:41;;;;;;;8.30;3.50;;;;;;;;;;107582;1248;62001;-80
2023/04/23 12:04:09;;;;;;;4.00;3.30;;;;;;;;;;107551;1247;62117;-81
2023/04/23 12:06:35;;;;;;;6.40;3.10;;;;;;;;;;107438;1247;63185;-80
2023/04/23 12:09:02;;;;;;;4.60;3.20;;;;;;;;;;107632;1247;62142;-80
2023/04/23 12:11:28;;;;;;;9.70;3.70;;;;;;;;;;107633;1247;61992;-80
2023/04/23 12:13:56;;;;;;;5.10;2.70;;;;;;;;;;107577;1247;62002;-81
2023/04/23 12:16:32;;;;;;;6.40;3.30;;;;;;;;;;107621;1247;62171;-81
2023/04/23 12:18:59;;;;;;;5.00;3.30;;;;;;;;;;107608;1247;62060;-80
2023/04/23 12:21:28;;;;;;;7.80;4.00;;;;;;;;;;107611;1253;61945;-80
2023/04/23 12:23:55;;;;;;;5.10;3.60;;;;;;;;;;107431;1247;62054;-80
2023/04/23 12:26:23;;;;;;;7.70;4.20;;;;;;;;;;107639;1252;62154;-80
2023/04/23 12:28:50;;;;;;;;;;;;;;;;;;107663;1253;62088;-81
2023/04/23 12:31:20;;;;;;;8.00;3.70;;;;;;;;;;107708;1248;62004;-81
2023/04/23 12:33:47;;;;;;;8.30;3.10;;;;;;;;;;107698;1248;62059;-80
2023/04/23 12:36:16;;;;;;;5.30;3.60;;;;;;;;;;107784;1251;61977;-80
2023/04/23 12:38:42;;;;;;;11.20;6.50;;;;;;;;;;107726;1248;61923;-81
2023/04/23 12:41:09;;;;;;;7.60;5.60;;;;;;;;;;107689;1251;62082;-80
2023/04/23 12:43:35;;;;;;;7.00;5.20;;;;;;;;;;107491;1252;63114;-81
2023/04/23 12:46:01;;;;;;;5.10;3.80;;;;;;;;;;107733;1248;62020;-81
2023/04/23 12:48:28;;;;;;;6.60;4.10;;;;;;;;;;107706;1248;62050;-81
2023/04/23 12:50:54;;;;;;;6.80;4.70;;;;;;;;;;108346;1247;61945;-81
2023/04/23 12:53:20;;;;;;;6.10;2.70;;;;;;;;;;108582;1248;22649;-81
2023/04/23 12:55:48;;;;;;;5.30;2.70;;;;;;;;;;108625;1248;22584;-81
2023/04/23 12:58:15;;;;;;;6.40;3.10;;;;;;;;;;108445;1248;24237;-81
2023/04/23 13:00:41;;;;;;;5.20;3.70;;;;;;;;;;108425;1248;23235;-81
2023/04/23 13:03:08;;;;;;;5.40;3.30;;;;;;;;;;108262;1249;22592;-81
2023/04/23 13:05:34;;;;;;;5.90;2.40;;;;;;;;;;108179;1251;22543;-81
2023/04/23 13:08:00;;;;;;;4.80;3.00;;;;;;;;;;108221;1250;23005;-81
2023/04/23 13:10:29;;;;;;;4.60;2.40;;;;;;;;;;108267;1250;22668;-81
2023/04/23 13:12:56;;;;;;;7.60;3.00;;;;;;;;;;108250;1250;23774;-81
2023/04/23 13:15:22;;;;;;;4.60;2.30;;;;;;;;;;108237;1253;22517;-81
2023/04/23 13:17:48;;;;;;;4.70;2.20;;;;;;;;;;108294;1249;22544;-81
2023/04/23 13:20:15;;;;;;;4.40;2.60;;;;;;;;;;108270;1249;22526;-81
2023/04/23 13:22:41;;;;;;;6.90;2.90;;;;;;;;;;108251;1250;25423;-81
2023/04/23 13:25:07;;;;;;;5.40;3.30;;;;;;;;;;108279;1251;22542;-81
2023/04/23 13:27:34;;;;;;;3.90;2.70;;;;;;;;;;108297;1249;24228;-81
2023/04/23 13:30:00;;;;;;;5.90;2.90;;;;;;;;;;108556;1248;22639;-81
2023/04/23 13:32:30;;;;;;;6.90;3.30;;;;;;;;;;108659;1248;22518;-81
2023/04/23 13:34:59;;;;;;;6.80;3.30;;;;;;;;;;108613;1248;22567;-81
2023/04/23 13:37:26;;;;;;;4.70;3.00;;;;;;;;;;108638;1247;25424;-81
2023/04/23 13:39:52;;;;;;;5.20;2.80;;;;;;;;;;108621;1248;22551;-81
2023/04/23 13:42:18;;;;;;;4.50;3.00;;;;;;;;;;108694;1248;24233;-81
2023/04/23 13:44:45;;;;;;;6.00;2.90;;;;;;;;;;108646;1248;22518;-81
2023/04/23 13:47:11;;;;;;;3.20;2.40;;;;;;;;;;108593;1247;22537;-81
2023/04/23 13:49:37;;;;;;;6.30;3.20;;;;;;;;;;108607;1248;22630;-81
2023/04/23 13:52:05;;;;;;;3.50;2.20;;;;;;;;;;108626;1248;22521;-81
2023/04/23 13:54:31;;;;;;;6.40;2.40;;;;;;;;;;108610;1248;22561;-81
2023/04/23 13:56:58;;;;;;;6.60;2.60;;;;;;;;;;108537;1250;25249;-81
2023/04/23 13:59:24;;;;;;;12.50;8.50;;;;;;;;;;108124;1249;154903;-81
2023/04/23 14:01:51;;;;;;;12.90;6.00;;;;;;;;;;108276;1250;22533;-81
2023/04/23 14:04:17;;;;;;;9.90;5.50;;;;;;;;;;108241;1247;22540;-81
2023/04/23 14:06:44;;;;;;;6.40;3.10;;;;;;;;;;108465;1247;25214;-80
2023/04/23 14:09:10;;;;;;;6.80;3.10;;;;;;;;;;108402;1247;22523;-80
2023/04/23 14:11:38;;;;;;;8.70;3.60;;;;;;;;;;108464;1247;25493;-80
2023/04/23 14:14:04;;;;;;;6.00;3.60;;;;;;;;;;108482;1247;26616;-81